sensor_id;sensor_type;location;lat;lon;timestamp;P1;durP1;ratioP1;P2;durP2;ratioP2
23634;SDS011;11994;51.038;16.974;2022-12-19T00:03:52;117.87;;;53.70;;
23634;SDS011;11994;51.038;16.974;2022-12-19T00:06:20;120.92;;;53.30;;
23634;SDS011;11994;51.038;16.974;2022-12-19T00:08:47;106.60;;;44.93;;
23634;SDS011;11994;51.038;16.974;2022-12-19T00:11:15;109.15;;;51.63;;
23634;SDS011;11994;51.038;16.974;2022-12-19T00:13:45;111.70;;;47.70;;
23634;SDS011;11994;51.038;16.974;2022-12-19T00:16:19;115.85;;;49.65;;
23634;SDS011;11994;51.038;16.974;2022-12-19T00:18:48;117.80;;;52.55;;
23634;SDS011;11994;51.038;16.974;2022-12-19T00:21:16;116.40;;;53.30;;
23634;SDS011;11994;51.038;16.974;2022-12-19T00:23:45;119.20;;;54.42;;
23634;SDS011;11994;51.038;16.974;2022-12-19T00:26:19;111.03;;;50.75;;
23634;SDS011;11994;51.038;16.974;2022-12-19T00:28:45;114.52;;;50.45;;
23634;SDS011;11994;51.038;16.974;2022-12-19T00:31:14;115.28;;;50.80;;
23634;SDS011;11994;51.038;16.974;2022-12-19T00:33:42;115.92;;;52.33;;
23634;SDS011;11994;51.038;16.974;2022-12-19T00:36:13;110.20;;;50.43;;
23634;SDS011;11994;51.038;16.974;2022-12-19T00:38:39;117.93;;;53.63;;
23634;SDS011;11994;51.038;16.974;2022-12-19T00:41:13;117.80;;;51.37;;
23634;SDS011;11994;51.038;16.974;2022-12-19T00:44:01;107.80;;;51.25;;
23634;SDS011;11994;51.038;16.974;2022-12-19T00:46:29;101.10;;;47.80;;
23634;SDS011;11994;51.038;16.974;2022-12-19T00:48:57;108.10;;;50.63;;
23634;SDS011;11994;51.038;16.974;2022-12-19T00:51:25;106.07;;;48.45;;
23634;SDS011;11994;51.038;16.974;2022-12-19T00:53:54;104.75;;;44.88;;
23634;SDS011;11994;51.038;16.974;2022-12-19T00:56:22;104.97;;;49.18;;
23634;SDS011;11994;51.038;16.974;2022-12-19T00:58:53;109.05;;;48.17;;
23634;SDS011;11994;51.038;16.974;2022-12-19T01:01:21;100.78;;;47.30;;
23634;SDS011;11994;51.038;16.974;2022-12-19T01:06:17;106.12;;;46.00;;
23634;SDS011;11994;51.038;16.974;2022-12-19T01:08:43;110.35;;;48.50;;
23634;SDS011;11994;51.038;16.974;2022-12-19T01:11:10;106.93;;;49.50;;
23634;SDS011;11994;51.038;16.974;2022-12-19T01:13:37;110.48;;;50.35;;
23634;SDS011;11994;51.038;16.974;2022-12-19T01:16:09;117.90;;;52.15;;
23634;SDS011;11994;51.038;16.974;2022-12-19T01:18:38;113.97;;;47.67;;
23634;SDS011;11994;51.038;16.974;2022-12-19T01:21:06;114.60;;;53.03;;
23634;SDS011;11994;51.038;16.974;2022-12-19T01:23:35;112.80;;;50.08;;
23634;SDS011;11994;51.038;16.974;2022-12-19T01:26:01;110.97;;;45.95;;
23634;SDS011;11994;51.038;16.974;2022-12-19T01:28:28;109.05;;;50.65;;
23634;SDS011;11994;51.038;16.974;2022-12-19T01:30:54;113.28;;;51.58;;
23634;SDS011;11994;51.038;16.974;2022-12-19T01:33:20;112.40;;;50.55;;
23634;SDS011;11994;51.038;16.974;2022-12-19T01:35:47;112.45;;;49.45;;
23634;SDS011;11994;51.038;16.974;2022-12-19T01:38:17;102.60;;;48.25;;
23634;SDS011;11994;51.038;16.974;2022-12-19T01:40:54;104.23;;;48.07;;
23634;SDS011;11994;51.038;16.974;2022-12-19T01:43:22;101.95;;;44.73;;
23634;SDS011;11994;51.038;16.974;2022-12-19T01:46:03;105.83;;;45.58;;
23634;SDS011;11994;51.038;16.974;2022-12-19T01:48:32;98.58;;;45.55;;
23634;SDS011;11994;51.038;16.974;2022-12-19T01:51:06;99.97;;;45.45;;
23634;SDS011;11994;51.038;16.974;2022-12-19T01:53:39;97.22;;;46.13;;
23634;SDS011;11994;51.038;16.974;2022-12-19T01:56:11;96.50;;;44.73;;
23634;SDS011;11994;51.038;16.974;2022-12-19T01:58:38;106.80;;;46.92;;
23634;SDS011;11994;51.038;16.974;2022-12-19T02:01:09;100.42;;;45.38;;
23634;SDS011;11994;51.038;16.974;2022-12-19T02:03:36;93.42;;;44.33;;
23634;SDS011;11994;51.038;16.974;2022-12-19T02:06:03;101.62;;;48.05;;
23634;SDS011;11994;51.038;16.974;2022-12-19T02:08:32;97.02;;;45.65;;
23634;SDS011;11994;51.038;16.974;2022-12-19T02:10:59;104.63;;;45.03;;
23634;SDS011;11994;51.038;16.974;2022-12-19T02:13:25;99.45;;;45.60;;
23634;SDS011;11994;51.038;16.974;2022-12-19T02:16:54;96.53;;;45.10;;
23634;SDS011;11994;51.038;16.974;2022-12-19T02:21:31;95.35;;;46.60;;
23634;SDS011;11994;51.038;16.974;2022-12-19T02:35:22;105.50;;;49.35;;
23634;SDS011;11994;51.038;16.974;2022-12-19T02:38:19;100.53;;;47.05;;
23634;SDS011;11994;51.038;16.974;2022-12-19T02:43:57;97.53;;;42.37;;
23634;SDS011;11994;51.038;16.974;2022-12-19T02:46:23;89.30;;;45.23;;
23634;SDS011;11994;51.038;16.974;2022-12-19T02:48:51;92.33;;;42.38;;
23634;SDS011;11994;51.038;16.974;2022-12-19T02:51:18;103.20;;;48.25;;
23634;SDS011;11994;51.038;16.974;2022-12-19T02:53:44;99.83;;;45.87;;
23634;SDS011;11994;51.038;16.974;2022-12-19T02:59:12;99.70;;;46.20;;
23634;SDS011;11994;51.038;16.974;2022-12-19T03:13:07;105.32;;;46.05;;
23634;SDS011;11994;51.038;16.974;2022-12-19T03:15:42;93.60;;;46.37;;
23634;SDS011;11994;51.038;16.974;2022-12-19T03:18:09;97.97;;;45.50;;
23634;SDS011;11994;51.038;16.974;2022-12-19T03:21:38;108.20;;;49.85;;
23634;SDS011;11994;51.038;16.974;2022-12-19T03:23:29;109.00;;;49.15;;
23634;SDS011;11994;51.038;16.974;2022-12-19T03:26:00;98.90;;;48.25;;
23634;SDS011;11994;51.038;16.974;2022-12-19T03:28:38;106.45;;;48.45;;
23634;SDS011;11994;51.038;16.974;2022-12-19T03:31:16;101.18;;;45.00;;
23634;SDS011;11994;51.038;16.974;2022-12-19T03:33:50;101.05;;;46.83;;
23634;SDS011;11994;51.038;16.974;2022-12-19T03:36:20;98.78;;;42.80;;
23634;SDS011;11994;51.038;16.974;2022-12-19T03:38:51;106.63;;;48.02;;
23634;SDS011;11994;51.038;16.974;2022-12-19T03:41:18;106.10;;;47.27;;
23634;SDS011;11994;51.038;16.974;2022-12-19T03:43:49;99.35;;;46.65;;
23634;SDS011;11994;51.038;16.974;2022-12-19T03:46:21;95.15;;;46.00;;
23634;SDS011;11994;51.038;16.974;2022-12-19T03:48:48;96.97;;;43.90;;
23634;SDS011;11994;51.038;16.974;2022-12-19T03:53:58;92.50;;;42.95;;
23634;SDS011;11994;51.038;16.974;2022-12-19T03:56:30;98.67;;;45.58;;
23634;SDS011;11994;51.038;16.974;2022-12-19T03:59:08;98.85;;;43.38;;
23634;SDS011;11994;51.038;16.974;2022-12-19T04:01:41;88.87;;;41.20;;
23634;SDS011;11994;51.038;16.974;2022-12-19T04:04:09;99.10;;;48.42;;
23634;SDS011;11994;51.038;16.974;2022-12-19T04:06:37;94.00;;;40.78;;
23634;SDS011;11994;51.038;16.974;2022-12-19T04:09:06;97.17;;;46.68;;
23634;SDS011;11994;51.038;16.974;2022-12-19T04:11:34;92.50;;;43.78;;
23634;SDS011;11994;51.038;16.974;2022-12-19T04:14:07;93.33;;;45.20;;
23634;SDS011;11994;51.038;16.974;2022-12-19T04:16:53;96.40;;;45.25;;
23634;SDS011;11994;51.038;16.974;2022-12-19T04:22:11;99.73;;;47.20;;
23634;SDS011;11994;51.038;16.974;2022-12-19T04:24:49;100.15;;;47.13;;
23634;SDS011;11994;51.038;16.974;2022-12-19T04:27:18;101.38;;;44.60;;
23634;SDS011;11994;51.038;16.974;2022-12-19T04:29:46;90.97;;;41.70;;
23634;SDS011;11994;51.038;16.974;2022-12-19T04:32:16;97.10;;;44.63;;
23634;SDS011;11994;51.038;16.974;2022-12-19T04:34:44;94.05;;;41.63;;
23634;SDS011;11994;51.038;16.974;2022-12-19T04:37:10;96.55;;;44.18;;
23634;SDS011;11994;51.038;16.974;2022-12-19T04:39:36;93.95;;;44.05;;
23634;SDS011;11994;51.038;16.974;2022-12-19T04:42:02;97.75;;;44.95;;
23634;SDS011;11994;51.038;16.974;2022-12-19T04:44:28;94.03;;;42.25;;
23634;SDS011;11994;51.038;16.974;2022-12-19T04:46:55;93.60;;;42.90;;
23634;SDS011;11994;51.038;16.974;2022-12-19T04:49:21;91.75;;;40.15;;
23634;SDS011;11994;51.038;16.974;2022-12-19T04:51:47;86.70;;;43.13;;
23634;SDS011;11994;51.038;16.974;2022-12-19T04:54:13;83.47;;;39.65;;
23634;SDS011;11994;51.038;16.974;2022-12-19T04:56:39;93.50;;;44.15;;
23634;SDS011;11994;51.038;16.974;2022-12-19T04:59:05;88.70;;;41.33;;
23634;SDS011;11994;51.038;16.974;2022-12-19T05:01:31;87.33;;;40.38;;
23634;SDS011;11994;51.038;16.974;2022-12-19T05:03:58;88.80;;;42.85;;
23634;SDS011;11994;51.038;16.974;2022-12-19T05:06:24;81.90;;;39.70;;
23634;SDS011;11994;51.038;16.974;2022-12-19T05:08:50;81.75;;;39.78;;
23634;SDS011;11994;51.038;16.974;2022-12-19T05:11:16;85.95;;;38.35;;
23634;SDS011;11994;51.038;16.974;2022-12-19T05:13:42;90.40;;;41.15;;
23634;SDS011;11994;51.038;16.974;2022-12-19T05:16:10;84.90;;;41.85;;
23634;SDS011;11994;51.038;16.974;2022-12-19T05:18:37;79.70;;;37.05;;
23634;SDS011;11994;51.038;16.974;2022-12-19T05:21:04;76.45;;;36.60;;
23634;SDS011;11994;51.038;16.974;2022-12-19T05:23:31;83.78;;;39.03;;
23634;SDS011;11994;51.038;16.974;2022-12-19T05:25:57;81.15;;;38.30;;
23634;SDS011;11994;51.038;16.974;2022-12-19T05:28:25;69.50;;;32.23;;
23634;SDS011;11994;51.038;16.974;2022-12-19T05:31:00;83.40;;;38.13;;
23634;SDS011;11994;51.038;16.974;2022-12-19T05:33:31;88.90;;;39.98;;
23634;SDS011;11994;51.038;16.974;2022-12-19T05:35:58;87.72;;;41.35;;
23634;SDS011;11994;51.038;16.974;2022-12-19T05:38:24;82.57;;;36.80;;
23634;SDS011;11994;51.038;16.974;2022-12-19T05:40:50;81.95;;;39.27;;
23634;SDS011;11994;51.038;16.974;2022-12-19T05:43:17;79.32;;;37.42;;
23634;SDS011;11994;51.038;16.974;2022-12-19T05:45:43;84.80;;;40.75;;
23634;SDS011;11994;51.038;16.974;2022-12-19T05:48:09;82.85;;;39.85;;
23634;SDS011;11994;51.038;16.974;2022-12-19T05:50:35;78.30;;;37.73;;
23634;SDS011;11994;51.038;16.974;2022-12-19T05:53:01;80.20;;;39.53;;
23634;SDS011;11994;51.038;16.974;2022-12-19T05:55:27;86.28;;;40.70;;
23634;SDS011;11994;51.038;16.974;2022-12-19T05:57:54;86.55;;;39.65;;
23634;SDS011;11994;51.038;16.974;2022-12-19T06:00:20;83.80;;;38.38;;
23634;SDS011;11994;51.038;16.974;2022-12-19T06:02:46;82.85;;;38.38;;
23634;SDS011;11994;51.038;16.974;2022-12-19T06:05:12;83.10;;;40.92;;
23634;SDS011;11994;51.038;16.974;2022-12-19T06:07:39;79.17;;;37.58;;
23634;SDS011;11994;51.038;16.974;2022-12-19T06:10:05;79.80;;;37.27;;
23634;SDS011;11994;51.038;16.974;2022-12-19T06:12:32;93.37;;;44.45;;
23634;SDS011;11994;51.038;16.974;2022-12-19T06:14:58;78.78;;;38.73;;
23634;SDS011;11994;51.038;16.974;2022-12-19T06:17:24;80.60;;;37.08;;
23634;SDS011;11994;51.038;16.974;2022-12-19T06:19:50;80.50;;;38.55;;
23634;SDS011;11994;51.038;16.974;2022-12-19T06:22:16;74.75;;;34.60;;
23634;SDS011;11994;51.038;16.974;2022-12-19T06:24:42;75.27;;;34.33;;
23634;SDS011;11994;51.038;16.974;2022-12-19T06:27:09;68.57;;;34.83;;
23634;SDS011;11994;51.038;16.974;2022-12-19T06:29:35;69.07;;;33.55;;
23634;SDS011;11994;51.038;16.974;2022-12-19T06:32:02;70.83;;;33.02;;
23634;SDS011;11994;51.038;16.974;2022-12-19T06:34:28;70.20;;;33.23;;
23634;SDS011;11994;51.038;16.974;2022-12-19T06:36:54;65.70;;;32.75;;
23634;SDS011;11994;51.038;16.974;2022-12-19T06:39:20;77.65;;;36.35;;
23634;SDS011;11994;51.038;16.974;2022-12-19T06:41:47;75.03;;;37.48;;
23634;SDS011;11994;51.038;16.974;2022-12-19T06:44:31;79.22;;;34.65;;
23634;SDS011;11994;51.038;16.974;2022-12-19T06:46:58;76.80;;;38.55;;
23634;SDS011;11994;51.038;16.974;2022-12-19T06:49:24;79.62;;;38.35;;
23634;SDS011;11994;51.038;16.974;2022-12-19T06:51:50;75.30;;;35.78;;
23634;SDS011;11994;51.038;16.974;2022-12-19T06:54:16;75.47;;;38.88;;
23634;SDS011;11994;51.038;16.974;2022-12-19T06:56:42;74.62;;;37.23;;
23634;SDS011;11994;51.038;16.974;2022-12-19T06:59:10;81.42;;;40.17;;
23634;SDS011;11994;51.038;16.974;2022-12-19T07:04:48;82.20;;;38.23;;
23634;SDS011;11994;51.038;16.974;2022-12-19T07:07:14;79.03;;;38.02;;
23634;SDS011;11994;51.038;16.974;2022-12-19T07:09:41;76.75;;;35.03;;
23634;SDS011;11994;51.038;16.974;2022-12-19T07:12:07;69.58;;;33.15;;
23634;SDS011;11994;51.038;16.974;2022-12-19T07:14:33;75.27;;;35.37;;
23634;SDS011;11994;51.038;16.974;2022-12-19T07:16:59;62.88;;;31.17;;
23634;SDS011;11994;51.038;16.974;2022-12-19T07:19:27;69.00;;;33.38;;
23634;SDS011;11994;51.038;16.974;2022-12-19T07:21:56;69.45;;;35.65;;
23634;SDS011;11994;51.038;16.974;2022-12-19T07:24:25;64.80;;;31.60;;
23634;SDS011;11994;51.038;16.974;2022-12-19T07:26:51;67.30;;;33.38;;
23634;SDS011;11994;51.038;16.974;2022-12-19T07:29:17;60.52;;;30.68;;
23634;SDS011;11994;51.038;16.974;2022-12-19T07:31:43;66.53;;;32.93;;
23634;SDS011;11994;51.038;16.974;2022-12-19T07:34:10;63.10;;;33.10;;
23634;SDS011;11994;51.038;16.974;2022-12-19T07:36:36;68.07;;;34.88;;
23634;SDS011;11994;51.038;16.974;2022-12-19T07:39:02;69.22;;;31.42;;
23634;SDS011;11994;51.038;16.974;2022-12-19T07:41:28;62.15;;;31.57;;
23634;SDS011;11994;51.038;16.974;2022-12-19T07:43:54;65.52;;;33.55;;
23634;SDS011;11994;51.038;16.974;2022-12-19T07:46:20;63.38;;;31.25;;
23634;SDS011;11994;51.038;16.974;2022-12-19T07:48:46;59.42;;;29.18;;
23634;SDS011;11994;51.038;16.974;2022-12-19T07:51:13;61.23;;;29.55;;
23634;SDS011;11994;51.038;16.974;2022-12-19T07:53:39;59.65;;;31.12;;
23634;SDS011;11994;51.038;16.974;2022-12-19T07:56:05;69.70;;;30.92;;
23634;SDS011;11994;51.038;16.974;2022-12-19T07:58:32;59.45;;;30.82;;
23634;SDS011;11994;51.038;16.974;2022-12-19T08:00:58;62.88;;;31.33;;
23634;SDS011;11994;51.038;16.974;2022-12-19T08:03:26;70.67;;;34.90;;
23634;SDS011;11994;51.038;16.974;2022-12-19T08:05:56;67.92;;;35.45;;
23634;SDS011;11994;51.038;16.974;2022-12-19T08:08:27;62.03;;;33.98;;
23634;SDS011;11994;51.038;16.974;2022-12-19T08:10:54;68.33;;;35.48;;
23634;SDS011;11994;51.038;16.974;2022-12-19T08:13:23;65.32;;;33.98;;
23634;SDS011;11994;51.038;16.974;2022-12-19T08:15:49;67.50;;;31.70;;
23634;SDS011;11994;51.038;16.974;2022-12-19T08:18:15;63.38;;;34.27;;
23634;SDS011;11994;51.038;16.974;2022-12-19T08:20:44;63.95;;;31.87;;
23634;SDS011;11994;51.038;16.974;2022-12-19T08:23:11;65.05;;;32.33;;
23634;SDS011;11994;51.038;16.974;2022-12-19T08:25:37;63.37;;;32.20;;
23634;SDS011;11994;51.038;16.974;2022-12-19T08:28:02;63.60;;;32.37;;
23634;SDS011;11994;51.038;16.974;2022-12-19T08:30:28;61.83;;;31.90;;
23634;SDS011;11994;51.038;16.974;2022-12-19T08:32:54;64.13;;;31.87;;
23634;SDS011;11994;51.038;16.974;2022-12-19T08:35:20;56.23;;;31.03;;
23634;SDS011;11994;51.038;16.974;2022-12-19T08:37:47;66.67;;;35.40;;
23634;SDS011;11994;51.038;16.974;2022-12-19T08:40:13;67.72;;;34.48;;
23634;SDS011;11994;51.038;16.974;2022-12-19T08:42:39;71.28;;;36.85;;
23634;SDS011;11994;51.038;16.974;2022-12-19T08:45:06;64.27;;;34.30;;
23634;SDS011;11994;51.038;16.974;2022-12-19T08:47:33;62.50;;;30.68;;
23634;SDS011;11994;51.038;16.974;2022-12-19T08:49:59;62.88;;;31.15;;
23634;SDS011;11994;51.038;16.974;2022-12-19T08:52:25;65.63;;;34.23;;
23634;SDS011;11994;51.038;16.974;2022-12-19T08:54:51;60.33;;;33.33;;
23634;SDS011;11994;51.038;16.974;2022-12-19T08:57:16;60.27;;;31.33;;
23634;SDS011;11994;51.038;16.974;2022-12-19T08:59:42;59.57;;;30.97;;
23634;SDS011;11994;51.038;16.974;2022-12-19T09:02:08;59.05;;;31.95;;
23634;SDS011;11994;51.038;16.974;2022-12-19T09:04:35;62.67;;;33.18;;
23634;SDS011;11994;51.038;16.974;2022-12-19T09:07:01;60.38;;;30.40;;
23634;SDS011;11994;51.038;16.974;2022-12-19T09:09:27;61.60;;;34.20;;
23634;SDS011;11994;51.038;16.974;2022-12-19T09:11:53;60.27;;;32.60;;
23634;SDS011;11994;51.038;16.974;2022-12-19T09:14:19;59.20;;;32.37;;
23634;SDS011;11994;51.038;16.974;2022-12-19T09:16:45;65.17;;;34.23;;
23634;SDS011;11994;51.038;16.974;2022-12-19T09:19:10;63.70;;;33.13;;
23634;SDS011;11994;51.038;16.974;2022-12-19T09:21:38;62.67;;;33.02;;
23634;SDS011;11994;51.038;16.974;2022-12-19T09:24:04;59.73;;;32.27;;
23634;SDS011;11994;51.038;16.974;2022-12-19T09:26:30;63.10;;;30.75;;
23634;SDS011;11994;51.038;16.974;2022-12-19T09:28:56;59.73;;;31.30;;
23634;SDS011;11994;51.038;16.974;2022-12-19T09:31:23;64.10;;;33.92;;
23634;SDS011;11994;51.038;16.974;2022-12-19T09:33:50;61.13;;;32.23;;
23634;SDS011;11994;51.038;16.974;2022-12-19T09:36:18;61.18;;;33.15;;
23634;SDS011;11994;51.038;16.974;2022-12-19T09:38:48;57.62;;;31.73;;
23634;SDS011;11994;51.038;16.974;2022-12-19T09:47:13;56.25;;;30.48;;
23634;SDS011;11994;51.038;16.974;2022-12-19T09:49:46;57.55;;;31.82;;
23634;SDS011;11994;51.038;16.974;2022-12-19T09:57:39;54.58;;;31.37;;
23634;SDS011;11994;51.038;16.974;2022-12-19T10:00:19;51.48;;;27.17;;
23634;SDS011;11994;51.038;16.974;2022-12-19T10:02:48;45.38;;;25.85;;
23634;SDS011;11994;51.038;16.974;2022-12-19T10:08:18;43.35;;;23.20;;
23634;SDS011;11994;51.038;16.974;2022-12-19T10:19:19;40.10;;;22.55;;
23634;SDS011;11994;51.038;16.974;2022-12-19T10:22:03;39.58;;;21.80;;
23634;SDS011;11994;51.038;16.974;2022-12-19T10:24:53;38.58;;;21.65;;
23634;SDS011;11994;51.038;16.974;2022-12-19T10:27:54;37.30;;;22.25;;
23634;SDS011;11994;51.038;16.974;2022-12-19T10:33:45;34.15;;;19.95;;
23634;SDS011;11994;51.038;16.974;2022-12-19T10:36:31;32.15;;;17.25;;
23634;SDS011;11994;51.038;16.974;2022-12-19T10:39:06;31.95;;;18.20;;
23634;SDS011;11994;51.038;16.974;2022-12-19T10:41:39;23.90;;;14.35;;
23634;SDS011;11994;51.038;16.974;2022-12-19T10:44:08;18.87;;;11.40;;
23634;SDS011;11994;51.038;16.974;2022-12-19T10:46:38;20.43;;;10.95;;
23634;SDS011;11994;51.038;16.974;2022-12-19T10:49:21;19.77;;;11.78;;
23634;SDS011;11994;51.038;16.974;2022-12-19T10:57:27;20.37;;;12.73;;
23634;SDS011;11994;51.038;16.974;2022-12-19T11:02:39;22.45;;;12.58;;
23634;SDS011;11994;51.038;16.974;2022-12-19T11:08:23;22.37;;;13.40;;
23634;SDS011;11994;51.038;16.974;2022-12-19T11:10:53;20.68;;;12.98;;
23634;SDS011;11994;51.038;16.974;2022-12-19T11:13:26;23.75;;;13.38;;
23634;SDS011;11994;51.038;16.974;2022-12-19T11:16:02;23.00;;;13.88;;
23634;SDS011;11994;51.038;16.974;2022-12-19T11:18:37;23.85;;;14.58;;
23634;SDS011;11994;51.038;16.974;2022-12-19T11:21:29;23.07;;;13.98;;
23634;SDS011;11994;51.038;16.974;2022-12-19T11:29:23;22.95;;;14.45;;
23634;SDS011;11994;51.038;16.974;2022-12-19T11:32:19;23.87;;;15.08;;
23634;SDS011;11994;51.038;16.974;2022-12-19T11:34:50;25.85;;;14.98;;
23634;SDS011;11994;51.038;16.974;2022-12-19T11:37:24;25.63;;;15.27;;
23634;SDS011;11994;51.038;16.974;2022-12-19T11:39:56;24.35;;;15.38;;
23634;SDS011;11994;51.038;16.974;2022-12-19T11:42:47;25.62;;;15.13;;
23634;SDS011;11994;51.038;16.974;2022-12-19T11:48:45;25.17;;;16.55;;
23634;SDS011;11994;51.038;16.974;2022-12-19T11:57:06;27.55;;;16.50;;
23634;SDS011;11994;51.038;16.974;2022-12-19T11:59:35;26.80;;;16.37;;
23634;SDS011;11994;51.038;16.974;2022-12-19T12:14:28;27.35;;;17.00;;
23634;SDS011;11994;51.038;16.974;2022-12-19T12:16:50;28.65;;;17.27;;
23634;SDS011;11994;51.038;16.974;2022-12-19T12:25:01;29.15;;;18.90;;
23634;SDS011;11994;51.038;16.974;2022-12-19T12:31:21;32.23;;;18.40;;
23634;SDS011;11994;51.038;16.974;2022-12-19T12:33:42;29.77;;;19.52;;
23634;SDS011;11994;51.038;16.974;2022-12-19T12:36:48;31.65;;;19.45;;
23634;SDS011;11994;51.038;16.974;2022-12-19T12:39:32;30.48;;;19.02;;
23634;SDS011;11994;51.038;16.974;2022-12-19T12:44:46;31.62;;;20.15;;
23634;SDS011;11994;51.038;16.974;2022-12-19T12:55:26;32.45;;;21.07;;
23634;SDS011;11994;51.038;16.974;2022-12-19T12:57:50;31.75;;;20.17;;
23634;SDS011;11994;51.038;16.974;2022-12-19T13:00:23;31.57;;;20.53;;
23634;SDS011;11994;51.038;16.974;2022-12-19T13:02:57;34.00;;;20.60;;
23634;SDS011;11994;51.038;16.974;2022-12-19T13:08:38;30.15;;;20.40;;
23634;SDS011;11994;51.038;16.974;2022-12-19T13:11:14;31.55;;;20.02;;
23634;SDS011;11994;51.038;16.974;2022-12-19T13:14:07;31.60;;;20.60;;
23634;SDS011;11994;51.038;16.974;2022-12-19T13:17:03;33.42;;;20.88;;
23634;SDS011;11994;51.038;16.974;2022-12-19T13:20:13;30.02;;;20.43;;
23634;SDS011;11994;51.038;16.974;2022-12-19T13:27:47;34.75;;;21.80;;
23634;SDS011;11994;51.038;16.974;2022-12-19T13:30:14;36.90;;;22.20;;
23634;SDS011;11994;51.038;16.974;2022-12-19T13:40:57;37.17;;;22.20;;
23634;SDS011;11994;51.038;16.974;2022-12-19T13:43:27;34.55;;;22.15;;
23634;SDS011;11994;51.038;16.974;2022-12-19T13:51:47;35.70;;;21.97;;
23634;SDS011;11994;51.038;16.974;2022-12-19T13:54:27;35.88;;;22.50;;
23634;SDS011;11994;51.038;16.974;2022-12-19T13:56:53;38.15;;;23.20;;
23634;SDS011;11994;51.038;16.974;2022-12-19T13:59:20;35.38;;;21.82;;
23634;SDS011;11994;51.038;16.974;2022-12-19T14:01:49;34.98;;;21.93;;
23634;SDS011;11994;51.038;16.974;2022-12-19T14:04:30;36.28;;;22.17;;
23634;SDS011;11994;51.038;16.974;2022-12-19T14:06:59;37.90;;;23.30;;
23634;SDS011;11994;51.038;16.974;2022-12-19T14:12:04;37.23;;;22.27;;
23634;SDS011;11994;51.038;16.974;2022-12-19T14:14:40;39.33;;;23.15;;
23634;SDS011;11994;51.038;16.974;2022-12-19T14:17:28;36.00;;;22.93;;
23634;SDS011;11994;51.038;16.974;2022-12-19T14:19:54;34.83;;;22.93;;
23634;SDS011;11994;51.038;16.974;2022-12-19T14:22:22;34.97;;;21.83;;
23634;SDS011;11994;51.038;16.974;2022-12-19T14:24:55;34.95;;;21.68;;
23634;SDS011;11994;51.038;16.974;2022-12-19T14:27:32;36.25;;;22.70;;
23634;SDS011;11994;51.038;16.974;2022-12-19T14:30:05;34.85;;;21.75;;
23634;SDS011;11994;51.038;16.974;2022-12-19T14:32:44;39.03;;;23.05;;
23634;SDS011;11994;51.038;16.974;2022-12-19T14:35:14;35.00;;;22.22;;
23634;SDS011;11994;51.038;16.974;2022-12-19T14:37:44;36.50;;;23.57;;
23634;SDS011;11994;51.038;16.974;2022-12-19T14:40:23;42.30;;;26.42;;
23634;SDS011;11994;51.038;16.974;2022-12-19T14:42:57;39.33;;;24.40;;
23634;SDS011;11994;51.038;16.974;2022-12-19T14:45:47;36.17;;;23.73;;
23634;SDS011;11994;51.038;16.974;2022-12-19T14:48:29;35.23;;;23.50;;
23634;SDS011;11994;51.038;16.974;2022-12-19T14:53:39;32.88;;;22.30;;
23634;SDS011;11994;51.038;16.974;2022-12-19T14:58:39;34.25;;;23.57;;
23634;SDS011;11994;51.038;16.974;2022-12-19T15:01:17;35.03;;;21.82;;
23634;SDS011;11994;51.038;16.974;2022-12-19T15:03:59;35.95;;;22.85;;
23634;SDS011;11994;51.038;16.974;2022-12-19T15:06:29;35.45;;;23.07;;
23634;SDS011;11994;51.038;16.974;2022-12-19T15:08:58;37.93;;;24.10;;
23634;SDS011;11994;51.038;16.974;2022-12-19T15:11:34;35.03;;;23.22;;
23634;SDS011;11994;51.038;16.974;2022-12-19T15:14:25;37.15;;;23.73;;
23634;SDS011;11994;51.038;16.974;2022-12-19T15:16:59;38.45;;;25.45;;
23634;SDS011;11994;51.038;16.974;2022-12-19T15:19:29;39.75;;;24.72;;
23634;SDS011;11994;51.038;16.974;2022-12-19T15:21:55;38.25;;;23.55;;
23634;SDS011;11994;51.038;16.974;2022-12-19T15:24:21;36.83;;;24.43;;
23634;SDS011;11994;51.038;16.974;2022-12-19T15:26:49;36.87;;;24.17;;
23634;SDS011;11994;51.038;16.974;2022-12-19T15:29:17;38.88;;;25.70;;
23634;SDS011;11994;51.038;16.974;2022-12-19T15:31:44;37.70;;;25.72;;
23634;SDS011;11994;51.038;16.974;2022-12-19T15:34:24;42.13;;;25.37;;
23634;SDS011;11994;51.038;16.974;2022-12-19T15:36:53;40.60;;;25.30;;
23634;SDS011;11994;51.038;16.974;2022-12-19T15:39:21;44.10;;;26.62;;
23634;SDS011;11994;51.038;16.974;2022-12-19T15:41:50;39.83;;;24.67;;
23634;SDS011;11994;51.038;16.974;2022-12-19T15:44:21;36.88;;;23.42;;
23634;SDS011;11994;51.038;16.974;2022-12-19T15:47:05;39.48;;;24.32;;
23634;SDS011;11994;51.038;16.974;2022-12-19T15:49:41;40.88;;;25.68;;
23634;SDS011;11994;51.038;16.974;2022-12-19T15:52:17;38.92;;;23.05;;
23634;SDS011;11994;51.038;16.974;2022-12-19T15:54:45;38.25;;;24.55;;
23634;SDS011;11994;51.038;16.974;2022-12-19T15:57:16;35.55;;;23.85;;
23634;SDS011;11994;51.038;16.974;2022-12-19T15:59:48;36.63;;;25.37;;
23634;SDS011;11994;51.038;16.974;2022-12-19T16:02:16;41.70;;;25.77;;
23634;SDS011;11994;51.038;16.974;2022-12-19T16:07:16;36.95;;;23.98;;
23634;SDS011;11994;51.038;16.974;2022-12-19T16:09:45;39.60;;;25.32;;
23634;SDS011;11994;51.038;16.974;2022-12-19T16:12:18;35.58;;;23.73;;
23634;SDS011;11994;51.038;16.974;2022-12-19T16:14:53;38.50;;;24.80;;
23634;SDS011;11994;51.038;16.974;2022-12-19T16:17:20;40.05;;;25.17;;
23634;SDS011;11994;51.038;16.974;2022-12-19T16:19:49;40.98;;;26.17;;
23634;SDS011;11994;51.038;16.974;2022-12-19T16:22:23;38.48;;;24.98;;
23634;SDS011;11994;51.038;16.974;2022-12-19T16:24:52;34.45;;;22.95;;
23634;SDS011;11994;51.038;16.974;2022-12-19T16:27:23;37.10;;;23.55;;
23634;SDS011;11994;51.038;16.974;2022-12-19T16:29:52;32.93;;;22.27;;
23634;SDS011;11994;51.038;16.974;2022-12-19T16:32:19;36.15;;;23.47;;
23634;SDS011;11994;51.038;16.974;2022-12-19T16:34:49;34.48;;;22.35;;
23634;SDS011;11994;51.038;16.974;2022-12-19T16:37:16;32.13;;;21.97;;
23634;SDS011;11994;51.038;16.974;2022-12-19T16:39:42;38.67;;;23.15;;
23634;SDS011;11994;51.038;16.974;2022-12-19T16:42:15;38.17;;;23.92;;
23634;SDS011;11994;51.038;16.974;2022-12-19T16:44:42;35.78;;;23.20;;
23634;SDS011;11994;51.038;16.974;2022-12-19T16:47:11;33.58;;;23.18;;
23634;SDS011;11994;51.038;16.974;2022-12-19T16:49:40;38.40;;;24.35;;
23634;SDS011;11994;51.038;16.974;2022-12-19T16:52:06;35.88;;;23.18;;
23634;SDS011;11994;51.038;16.974;2022-12-19T16:54:32;37.25;;;24.37;;
23634;SDS011;11994;51.038;16.974;2022-12-19T16:56:58;37.28;;;22.77;;
23634;SDS011;11994;51.038;16.974;2022-12-19T16:59:30;34.98;;;23.10;;
23634;SDS011;11994;51.038;16.974;2022-12-19T17:01:59;37.00;;;23.62;;
23634;SDS011;11994;51.038;16.974;2022-12-19T17:04:26;38.30;;;24.23;;
23634;SDS011;11994;51.038;16.974;2022-12-19T17:06:54;35.55;;;23.55;;